sensor_id;sensor_type;location;lat;lon;timestamp;P1;durP1;ratioP1;P2;durP2;ratioP2
37545;SDS011;23389;52.484;13.572;2023-02-01T00:01:35;15.27;;;3.67;;
37545;SDS011;23389;52.484;13.572;2023-02-01T00:04:01;17.23;;;3.38;;
37545;SDS011;23389;52.484;13.572;2023-02-01T00:06:26;14.50;;;2.92;;
37545;SDS011;23389;52.484;13.572;2023-02-01T00:08:52;21.33;;;4.20;;
37545;SDS011;23389;52.484;13.572;2023-02-01T00:11:19;23.38;;;4.28;;
37545;SDS011;23389;52.484;13.572;2023-02-01T00:13:44;20.25;;;3.75;;
37545;SDS011;23389;52.484;13.572;2023-02-01T00:16:13;18.25;;;3.97;;
37545;SDS011;23389;52.484;13.572;2023-02-01T00:18:41;20.90;;;3.70;;
37545;SDS011;23389;52.484;13.572;2023-02-01T00:21:07;19.75;;;3.53;;
37545;SDS011;23389;52.484;13.572;2023-02-01T00:23:33;23.88;;;3.63;;
37545;SDS011;23389;52.484;13.572;2023-02-01T00:26:03;22.85;;;3.70;;
37545;SDS011;23389;52.484;13.572;2023-02-01T00:28:30;20.35;;;3.85;;
37545;SDS011;23389;52.484;13.572;2023-02-01T00:30:56;22.23;;;5.00;;
37545;SDS011;23389;52.484;13.572;2023-02-01T00:33:22;19.45;;;4.10;;
37545;SDS011;23389;52.484;13.572;2023-02-01T00:35:48;22.33;;;4.50;;
37545;SDS011;23389;52.484;13.572;2023-02-01T00:38:13;13.95;;;3.33;;
37545;SDS011;23389;52.484;13.572;2023-02-01T00:40:38;19.23;;;3.10;;
37545;SDS011;23389;52.484;13.572;2023-02-01T00:43:03;20.48;;;3.85;;
37545;SDS011;23389;52.484;13.572;2023-02-01T00:45:29;18.10;;;3.72;;
37545;SDS011;23389;52.484;13.572;2023-02-01T00:47:54;20.63;;;4.50;;
37545;SDS011;23389;52.484;13.572;2023-02-01T00:50:19;17.92;;;4.03;;
37545;SDS011;23389;52.484;13.572;2023-02-01T00:52:44;21.65;;;4.03;;
37545;SDS011;23389;52.484;13.572;2023-02-01T00:55:10;19.77;;;3.45;;
37545;SDS011;23389;52.484;13.572;2023-02-01T00:57:35;20.20;;;3.70;;
37545;SDS011;23389;52.484;13.572;2023-02-01T01:00:00;17.00;;;3.28;;
37545;SDS011;23389;52.484;13.572;2023-02-01T01:02:26;23.42;;;4.45;;
37545;SDS011;23389;52.484;13.572;2023-02-01T01:04:52;16.23;;;3.42;;
37545;SDS011;23389;52.484;13.572;2023-02-01T01:07:17;17.13;;;4.75;;
37545;SDS011;23389;52.484;13.572;2023-02-01T01:09:43;16.95;;;3.65;;
37545;SDS011;23389;52.484;13.572;2023-02-01T01:12:08;19.67;;;3.42;;
37545;SDS011;23389;52.484;13.572;2023-02-01T01:14:33;19.60;;;3.92;;
37545;SDS011;23389;52.484;13.572;2023-02-01T01:16:58;15.32;;;2.60;;
37545;SDS011;23389;52.484;13.572;2023-02-01T01:19:24;17.10;;;2.90;;
37545;SDS011;23389;52.484;13.572;2023-02-01T01:21:49;18.98;;;2.83;;
37545;SDS011;23389;52.484;13.572;2023-02-01T01:24:14;14.52;;;2.65;;
37545;SDS011;23389;52.484;13.572;2023-02-01T01:26:40;17.10;;;4.20;;
37545;SDS011;23389;52.484;13.572;2023-02-01T01:29:05;14.95;;;2.85;;
37545;SDS011;23389;52.484;13.572;2023-02-01T01:31:30;13.13;;;2.72;;
37545;SDS011;23389;52.484;13.572;2023-02-01T01:33:57;16.83;;;2.80;;
37545;SDS011;23389;52.484;13.572;2023-02-01T01:36:24;21.45;;;3.08;;
37545;SDS011;23389;52.484;13.572;2023-02-01T01:38:51;19.63;;;3.50;;
37545;SDS011;23389;52.484;13.572;2023-02-01T01:41:21;17.15;;;3.80;;
37545;SDS011;23389;52.484;13.572;2023-02-01T01:46:22;14.52;;;3.00;;
37545;SDS011;23389;52.484;13.572;2023-02-01T01:48:52;15.80;;;3.45;;
37545;SDS011;23389;52.484;13.572;2023-02-01T01:51:26;15.63;;;2.53;;
37545;SDS011;23389;52.484;13.572;2023-02-01T01:53:58;21.75;;;3.60;;
37545;SDS011;23389;52.484;13.572;2023-02-01T01:56:31;21.00;;;4.37;;
37545;SDS011;23389;52.484;13.572;2023-02-01T01:58:59;16.42;;;3.00;;
37545;SDS011;23389;52.484;13.572;2023-02-01T02:01:24;18.00;;;3.53;;
37545;SDS011;23389;52.484;13.572;2023-02-01T02:03:50;20.63;;;4.00;;
37545;SDS011;23389;52.484;13.572;2023-02-01T02:06:24;19.70;;;4.03;;
37545;SDS011;23389;52.484;13.572;2023-02-01T02:08:56;15.77;;;2.83;;
37545;SDS011;23389;52.484;13.572;2023-02-01T02:11:22;17.58;;;2.95;;
37545;SDS011;23389;52.484;13.572;2023-02-01T02:13:48;21.05;;;3.47;;
37545;SDS011;23389;52.484;13.572;2023-02-01T02:16:23;18.77;;;3.45;;
37545;SDS011;23389;52.484;13.572;2023-02-01T02:21:48;20.23;;;3.20;;
37545;SDS011;23389;52.484;13.572;2023-02-01T02:24:30;18.60;;;3.50;;
37545;SDS011;23389;52.484;13.572;2023-02-01T02:27:06;14.32;;;3.15;;
37545;SDS011;23389;52.484;13.572;2023-02-01T02:35:17;17.73;;;3.30;;
37545;SDS011;23389;52.484;13.572;2023-02-01T02:38:15;22.63;;;3.83;;
37545;SDS011;23389;52.484;13.572;2023-02-01T02:40:46;20.38;;;3.70;;
37545;SDS011;23389;52.484;13.572;2023-02-01T02:43:20;17.90;;;3.38;;
37545;SDS011;23389;52.484;13.572;2023-02-01T02:51:45;12.45;;;2.88;;
37545;SDS011;23389;52.484;13.572;2023-02-01T02:54:38;17.67;;;3.05;;
37545;SDS011;23389;52.484;13.572;2023-02-01T02:57:15;16.50;;;3.17;;
37545;SDS011;23389;52.484;13.572;2023-02-01T03:00:04;15.32;;;2.92;;
37545;SDS011;23389;52.484;13.572;2023-02-01T03:02:51;19.13;;;3.38;;
37545;SDS011;23389;52.484;13.572;2023-02-01T03:05:37;19.20;;;2.88;;
37545;SDS011;23389;52.484;13.572;2023-02-01T03:08:12;15.43;;;3.17;;
37545;SDS011;23389;52.484;13.572;2023-02-01T03:16:27;17.20;;;3.05;;
37545;SDS011;23389;52.484;13.572;2023-02-01T03:19:02;19.13;;;3.78;;
37545;SDS011;23389;52.484;13.572;2023-02-01T03:21:40;19.67;;;4.07;;
37545;SDS011;23389;52.484;13.572;2023-02-01T03:24:10;23.08;;;4.28;;
37545;SDS011;23389;52.484;13.572;2023-02-01T03:26:43;18.33;;;3.75;;
37545;SDS011;23389;52.484;13.572;2023-02-01T03:29:21;25.40;;;4.50;;
37545;SDS011;23389;52.484;13.572;2023-02-01T03:31:52;19.58;;;3.90;;
37545;SDS011;23389;52.484;13.572;2023-02-01T03:34:18;14.30;;;2.83;;
37545;SDS011;23389;52.484;13.572;2023-02-01T03:36:46;18.63;;;4.45;;
37545;SDS011;23389;52.484;13.572;2023-02-01T03:39:22;19.20;;;4.15;;
37545;SDS011;23389;52.484;13.572;2023-02-01T03:41:53;16.23;;;3.63;;
37545;SDS011;23389;52.484;13.572;2023-02-01T03:44:22;16.85;;;4.00;;
37545;SDS011;23389;52.484;13.572;2023-02-01T03:46:52;26.45;;;4.28;;
37545;SDS011;23389;52.484;13.572;2023-02-01T03:49:23;19.45;;;2.97;;
37545;SDS011;23389;52.484;13.572;2023-02-01T03:51:52;17.92;;;3.67;;
37545;SDS011;23389;52.484;13.572;2023-02-01T03:54:20;19.55;;;4.55;;
37545;SDS011;23389;52.484;13.572;2023-02-01T03:56:46;17.08;;;3.75;;
37545;SDS011;23389;52.484;13.572;2023-02-01T03:59:13;23.42;;;3.90;;
37545;SDS011;23389;52.484;13.572;2023-02-01T04:01:39;20.60;;;3.53;;
37545;SDS011;23389;52.484;13.572;2023-02-01T04:04:06;19.05;;;4.00;;
37545;SDS011;23389;52.484;13.572;2023-02-01T04:06:31;21.40;;;3.47;;
37545;SDS011;23389;52.484;13.572;2023-02-01T04:08:57;22.63;;;3.70;;
37545;SDS011;23389;52.484;13.572;2023-02-01T04:11:22;23.50;;;3.92;;
37545;SDS011;23389;52.484;13.572;2023-02-01T04:13:47;12.35;;;4.05;;
37545;SDS011;23389;52.484;13.572;2023-02-01T04:16:12;23.55;;;4.38;;
37545;SDS011;23389;52.484;13.572;2023-02-01T04:18:38;19.50;;;3.30;;
37545;SDS011;23389;52.484;13.572;2023-02-01T04:21:03;21.23;;;3.83;;
37545;SDS011;23389;52.484;13.572;2023-02-01T04:23:28;16.23;;;3.55;;
37545;SDS011;23389;52.484;13.572;2023-02-01T04:25:58;14.55;;;3.17;;
37545;SDS011;23389;52.484;13.572;2023-02-01T04:28:24;15.55;;;2.70;;
37545;SDS011;23389;52.484;13.572;2023-02-01T04:30:49;14.23;;;3.67;;
37545;SDS011;23389;52.484;13.572;2023-02-01T04:33:14;21.98;;;3.42;;
37545;SDS011;23389;52.484;13.572;2023-02-01T04:35:40;20.92;;;4.18;;
37545;SDS011;23389;52.484;13.572;2023-02-01T04:38:05;18.27;;;3.97;;
37545;SDS011;23389;52.484;13.572;2023-02-01T04:40:31;20.10;;;3.45;;
37545;SDS011;23389;52.484;13.572;2023-02-01T04:42:57;24.17;;;3.67;;
37545;SDS011;23389;52.484;13.572;2023-02-01T04:45:22;20.75;;;4.07;;
37545;SDS011;23389;52.484;13.572;2023-02-01T04:47:47;19.95;;;3.58;;
37545;SDS011;23389;52.484;13.572;2023-02-01T04:50:13;16.48;;;4.28;;
37545;SDS011;23389;52.484;13.572;2023-02-01T04:52:39;20.50;;;4.18;;
37545;SDS011;23389;52.484;13.572;2023-02-01T04:55:04;18.38;;;3.60;;
37545;SDS011;23389;52.484;13.572;2023-02-01T04:57:30;18.92;;;3.50;;
37545;SDS011;23389;52.484;13.572;2023-02-01T04:59:55;19.73;;;4.43;;
37545;SDS011;23389;52.484;13.572;2023-02-01T05:02:20;23.90;;;4.45;;
37545;SDS011;23389;52.484;13.572;2023-02-01T05:04:46;20.20;;;4.30;;
37545;SDS011;23389;52.484;13.572;2023-02-01T05:07:11;16.98;;;3.40;;
37545;SDS011;23389;52.484;13.572;2023-02-01T05:09:36;16.85;;;4.32;;
37545;SDS011;23389;52.484;13.572;2023-02-01T05:12:02;16.55;;;4.00;;
37545;SDS011;23389;52.484;13.572;2023-02-01T05:14:45;17.50;;;3.67;;
37545;SDS011;23389;52.484;13.572;2023-02-01T05:17:10;21.05;;;4.38;;
37545;SDS011;23389;52.484;13.572;2023-02-01T05:19:36;23.45;;;4.18;;
37545;SDS011;23389;52.484;13.572;2023-02-01T05:22:01;22.00;;;3.70;;
37545;SDS011;23389;52.484;13.572;2023-02-01T05:24:26;17.70;;;3.90;;
37545;SDS011;23389;52.484;13.572;2023-02-01T05:26:52;21.02;;;4.25;;
37545;SDS011;23389;52.484;13.572;2023-02-01T05:29:18;23.45;;;4.25;;
37545;SDS011;23389;52.484;13.572;2023-02-01T05:31:44;24.30;;;4.63;;
37545;SDS011;23389;52.484;13.572;2023-02-01T05:34:10;17.75;;;3.95;;
37545;SDS011;23389;52.484;13.572;2023-02-01T05:36:36;20.50;;;4.10;;
37545;SDS011;23389;52.484;13.572;2023-02-01T05:39:01;21.83;;;3.50;;
37545;SDS011;23389;52.484;13.572;2023-02-01T05:41:26;19.33;;;4.45;;
37545;SDS011;23389;52.484;13.572;2023-02-01T05:43:52;21.13;;;4.35;;
37545;SDS011;23389;52.484;13.572;2023-02-01T05:46:17;20.55;;;4.15;;
37545;SDS011;23389;52.484;13.572;2023-02-01T05:48:42;20.38;;;4.25;;
37545;SDS011;23389;52.484;13.572;2023-02-01T05:51:08;19.92;;;3.72;;
37545;SDS011;23389;52.484;13.572;2023-02-01T05:53:34;22.77;;;4.68;;
37545;SDS011;23389;52.484;13.572;2023-02-01T05:56:00;19.83;;;4.18;;
37545;SDS011;23389;52.484;13.572;2023-02-01T05:58:25;20.38;;;4.65;;
37545;SDS011;23389;52.484;13.572;2023-02-01T06:00:50;22.05;;;5.38;;
37545;SDS011;23389;52.484;13.572;2023-02-01T06:03:16;13.90;;;3.33;;
37545;SDS011;23389;52.484;13.572;2023-02-01T06:05:43;27.83;;;4.45;;
37545;SDS011;23389;52.484;13.572;2023-02-01T06:08:09;17.75;;;3.72;;
37545;SDS011;23389;52.484;13.572;2023-02-01T06:10:34;22.23;;;4.55;;
37545;SDS011;23389;52.484;13.572;2023-02-01T06:12:59;20.48;;;4.95;;
37545;SDS011;23389;52.484;13.572;2023-02-01T06:15:24;23.17;;;4.20;;
37545;SDS011;23389;52.484;13.572;2023-02-01T06:17:50;15.20;;;3.95;;
37545;SDS011;23389;52.484;13.572;2023-02-01T06:20:15;19.83;;;5.63;;
37545;SDS011;23389;52.484;13.572;2023-02-01T06:22:41;19.38;;;5.00;;
37545;SDS011;23389;52.484;13.572;2023-02-01T06:25:07;18.67;;;3.83;;
37545;SDS011;23389;52.484;13.572;2023-02-01T06:27:34;20.60;;;5.30;;
37545;SDS011;23389;52.484;13.572;2023-02-01T06:29:59;22.85;;;3.95;;
37545;SDS011;23389;52.484;13.572;2023-02-01T06:32:24;25.25;;;6.57;;
37545;SDS011;23389;52.484;13.572;2023-02-01T06:34:50;25.88;;;4.38;;
37545;SDS011;23389;52.484;13.572;2023-02-01T06:37:17;34.58;;;12.68;;
37545;SDS011;23389;52.484;13.572;2023-02-01T06:39:42;22.13;;;5.10;;
37545;SDS011;23389;52.484;13.572;2023-02-01T06:42:08;19.90;;;4.95;;
37545;SDS011;23389;52.484;13.572;2023-02-01T06:44:33;25.20;;;6.10;;
37545;SDS011;23389;52.484;13.572;2023-02-01T06:46:58;22.27;;;4.82;;
37545;SDS011;23389;52.484;13.572;2023-02-01T06:49:23;25.90;;;5.72;;
37545;SDS011;23389;52.484;13.572;2023-02-01T06:51:49;22.98;;;4.75;;
37545;SDS011;23389;52.484;13.572;2023-02-01T06:54:14;18.95;;;4.07;;
37545;SDS011;23389;52.484;13.572;2023-02-01T06:56:39;16.77;;;3.78;;
37545;SDS011;23389;52.484;13.572;2023-02-01T06:59:05;21.20;;;4.07;;
37545;SDS011;23389;52.484;13.572;2023-02-01T07:01:31;21.75;;;4.32;;
37545;SDS011;23389;52.484;13.572;2023-02-01T07:03:57;18.10;;;4.50;;
37545;SDS011;23389;52.484;13.572;2023-02-01T07:06:22;16.20;;;4.00;;
37545;SDS011;23389;52.484;13.572;2023-02-01T07:08:47;16.63;;;4.68;;
37545;SDS011;23389;52.484;13.572;2023-02-01T07:11:14;23.48;;;5.15;;
37545;SDS011;23389;52.484;13.572;2023-02-01T07:13:41;19.50;;;5.10;;
37545;SDS011;23389;52.484;13.572;2023-02-01T07:16:08;19.52;;;4.13;;
37545;SDS011;23389;52.484;13.572;2023-02-01T07:18:39;17.88;;;4.00;;
37545;SDS011;23389;52.484;13.572;2023-02-01T07:21:05;20.15;;;4.40;;
37545;SDS011;23389;52.484;13.572;2023-02-01T07:23:31;21.98;;;4.15;;
37545;SDS011;23389;52.484;13.572;2023-02-01T07:25:57;18.42;;;4.50;;
37545;SDS011;23389;52.484;13.572;2023-02-01T07:28:24;17.38;;;3.72;;
37545;SDS011;23389;52.484;13.572;2023-02-01T07:30:50;18.38;;;4.22;;
37545;SDS011;23389;52.484;13.572;2023-02-01T07:33:17;16.13;;;3.60;;
37545;SDS011;23389;52.484;13.572;2023-02-01T07:35:44;18.73;;;3.65;;
37545;SDS011;23389;52.484;13.572;2023-02-01T07:38:10;16.58;;;3.97;;
37545;SDS011;23389;52.484;13.572;2023-02-01T07:40:35;16.90;;;3.63;;
37545;SDS011;23389;52.484;13.572;2023-02-01T07:43:00;16.60;;;3.40;;
37545;SDS011;23389;52.484;13.572;2023-02-01T07:45:25;20.35;;;4.35;;
37545;SDS011;23389;52.484;13.572;2023-02-01T07:47:51;16.80;;;4.03;;
37545;SDS011;23389;52.484;13.572;2023-02-01T07:50:18;18.17;;;4.40;;
37545;SDS011;23389;52.484;13.572;2023-02-01T07:52:43;17.60;;;3.97;;
37545;SDS011;23389;52.484;13.572;2023-02-01T07:55:08;17.77;;;4.82;;
37545;SDS011;23389;52.484;13.572;2023-02-01T07:57:34;16.40;;;4.20;;
37545;SDS011;23389;52.484;13.572;2023-02-01T07:59:59;22.38;;;4.68;;
37545;SDS011;23389;52.484;13.572;2023-02-01T08:02:43;21.60;;;4.13;;
37545;SDS011;23389;52.484;13.572;2023-02-01T08:05:09;21.75;;;3.95;;
37545;SDS011;23389;52.484;13.572;2023-02-01T08:07:34;18.00;;;4.20;;
37545;SDS011;23389;52.484;13.572;2023-02-01T08:09:59;16.83;;;4.20;;
37545;SDS011;23389;52.484;13.572;2023-02-01T08:12:25;16.45;;;4.25;;
37545;SDS011;23389;52.484;13.572;2023-02-01T08:14:50;20.15;;;3.88;;
37545;SDS011;23389;52.484;13.572;2023-02-01T08:17:15;11.20;;;3.83;;
37545;SDS011;23389;52.484;13.572;2023-02-01T08:19:41;12.93;;;3.92;;
37545;SDS011;23389;52.484;13.572;2023-02-01T08:22:06;16.20;;;3.92;;
37545;SDS011;23389;52.484;13.572;2023-02-01T08:24:32;17.15;;;3.92;;
37545;SDS011;23389;52.484;13.572;2023-02-01T08:27:00;17.02;;;4.13;;
37545;SDS011;23389;52.484;13.572;2023-02-01T08:29:26;14.48;;;3.78;;
37545;SDS011;23389;52.484;13.572;2023-02-01T08:31:51;14.88;;;4.22;;
37545;SDS011;23389;52.484;13.572;2023-02-01T08:34:16;17.52;;;4.00;;
37545;SDS011;23389;52.484;13.572;2023-02-01T08:36:42;14.82;;;4.85;;
37545;SDS011;23389;52.484;13.572;2023-02-01T08:39:08;14.70;;;3.63;;
37545;SDS011;23389;52.484;13.572;2023-02-01T08:41:35;14.00;;;3.92;;
37545;SDS011;23389;52.484;13.572;2023-02-01T08:44:01;13.40;;;3.83;;
37545;SDS011;23389;52.484;13.572;2023-02-01T08:46:27;13.68;;;4.13;;
37545;SDS011;23389;52.484;13.572;2023-02-01T08:48:52;12.35;;;4.70;;
37545;SDS011;23389;52.484;13.572;2023-02-01T08:51:18;13.48;;;3.90;;
37545;SDS011;23389;52.484;13.572;2023-02-01T08:53:44;16.08;;;5.00;;
37545;SDS011;23389;52.484;13.572;2023-02-01T08:56:10;12.50;;;4.38;;
37545;SDS011;23389;52.484;13.572;2023-02-01T08:58:36;17.13;;;4.72;;
37545;SDS011;23389;52.484;13.572;2023-02-01T09:01:03;12.95;;;4.57;;
37545;SDS011;23389;52.484;13.572;2023-02-01T09:03:32;13.63;;;4.30;;
37545;SDS011;23389;52.484;13.572;2023-02-01T09:06:01;12.98;;;4.28;;
37545;SDS011;23389;52.484;13.572;2023-02-01T09:08:30;10.10;;;4.32;;
37545;SDS011;23389;52.484;13.572;2023-02-01T09:11:00;9.77;;;3.75;;
37545;SDS011;23389;52.484;13.572;2023-02-01T09:13:29;15.30;;;4.95;;
37545;SDS011;23389;52.484;13.572;2023-02-01T09:15:55;13.38;;;4.22;;
37545;SDS011;23389;52.484;13.572;2023-02-01T09:18:20;10.02;;;3.50;;
37545;SDS011;23389;52.484;13.572;2023-02-01T09:20:45;9.85;;;3.05;;
37545;SDS011;23389;52.484;13.572;2023-02-01T09:23:11;9.57;;;3.10;;
37545;SDS011;23389;52.484;13.572;2023-02-01T09:25:36;8.35;;;3.15;;
37545;SDS011;23389;52.484;13.572;2023-02-01T09:28:03;6.60;;;2.40;;
37545;SDS011;23389;52.484;13.572;2023-02-01T09:30:30;8.75;;;2.55;;
37545;SDS011;23389;52.484;13.572;2023-02-01T09:32:56;10.15;;;2.95;;
37545;SDS011;23389;52.484;13.572;2023-02-01T09:35:21;8.02;;;2.58;;
37545;SDS011;23389;52.484;13.572;2023-02-01T09:37:46;7.43;;;2.30;;
37545;SDS011;23389;52.484;13.572;2023-02-01T09:40:13;10.20;;;2.20;;
37545;SDS011;23389;52.484;13.572;2023-02-01T09:42:47;8.48;;;1.92;;
37545;SDS011;23389;52.484;13.572;2023-02-01T09:45:34;6.00;;;1.80;;
37545;SDS011;23389;52.484;13.572;2023-02-01T09:48:11;9.07;;;2.03;;
37545;SDS011;23389;52.484;13.572;2023-02-01T09:50:42;6.45;;;2.00;;
37545;SDS011;23389;52.484;13.572;2023-02-01T09:53:16;8.38;;;2.03;;
37545;SDS011;23389;52.484;13.572;2023-02-01T09:55:47;8.07;;;2.08;;
37545;SDS011;23389;52.484;13.572;2023-02-01T09:58:20;6.10;;;1.58;;
37545;SDS011;23389;52.484;13.572;2023-02-01T10:00:53;6.43;;;1.48;;
37545;SDS011;23389;52.484;13.572;2023-02-01T10:03:20;7.03;;;1.60;;
37545;SDS011;23389;52.484;13.572;2023-02-01T10:11:41;9.02;;;1.83;;
37545;SDS011;23389;52.484;13.572;2023-02-01T10:14:17;4.32;;;1.30;;
37545;SDS011;23389;52.484;13.572;2023-02-01T10:22:17;6.57;;;1.50;;
37545;SDS011;23389;52.484;13.572;2023-02-01T10:25:14;4.75;;;1.33;;
37545;SDS011;23389;52.484;13.572;2023-02-01T10:27:53;4.97;;;1.42;;
37545;SDS011;23389;52.484;13.572;2023-02-01T10:30:23;6.47;;;1.30;;
37545;SDS011;23389;52.484;13.572;2023-02-01T10:32:56;7.07;;;1.40;;
37545;SDS011;23389;52.484;13.572;2023-02-01T10:35:31;8.10;;;1.63;;
37545;SDS011;23389;52.484;13.572;2023-02-01T10:38:00;6.18;;;1.65;;
37545;SDS011;23389;52.484;13.572;2023-02-01T10:40:27;10.52;;;2.15;;
37545;SDS011;23389;52.484;13.572;2023-02-01T10:42:53;8.27;;;1.85;;
37545;SDS011;23389;52.484;13.572;2023-02-01T10:45:23;9.98;;;1.80;;
37545;SDS011;23389;52.484;13.572;2023-02-01T10:47:51;7.80;;;1.43;;
37545;SDS011;23389;52.484;13.572;2023-02-01T10:53:11;10.60;;;2.13;;
37545;SDS011;23389;52.484;13.572;2023-02-01T10:55:41;8.95;;;1.90;;
37545;SDS011;23389;52.484;13.572;2023-02-01T10:58:15;8.65;;;2.00;;
37545;SDS011;23389;52.484;13.572;2023-02-01T11:00:47;9.35;;;1.75;;
37545;SDS011;23389;52.484;13.572;2023-02-01T11:03:30;8.90;;;1.90;;
37545;SDS011;23389;52.484;13.572;2023-02-01T11:05:58;7.55;;;1.80;;
37545;SDS011;23389;52.484;13.572;2023-02-01T11:08:24;6.47;;;1.50;;
37545;SDS011;23389;52.484;13.572;2023-02-01T11:10:57;7.07;;;1.65;;
37545;SDS011;23389;52.484;13.572;2023-02-01T11:13:31;4.97;;;1.25;;
37545;SDS011;23389;52.484;13.572;2023-02-01T11:16:01;6.18;;;1.48;;
37545;SDS011;23389;52.484;13.572;2023-02-01T11:18:29;5.68;;;1.33;;
37545;SDS011;23389;52.484;13.572;2023-02-01T11:20:56;6.78;;;1.58;;
37545;SDS011;23389;52.484;13.572;2023-02-01T11:23:24;6.65;;;2.00;;
37545;SDS011;23389;52.484;13.572;2023-02-01T11:25:55;11.63;;;2.85;;
37545;SDS011;23389;52.484;13.572;2023-02-01T11:28:24;12.98;;;3.85;;
37545;SDS011;23389;52.484;13.572;2023-02-01T11:30:54;16.00;;;5.55;;
37545;SDS011;23389;52.484;13.572;2023-02-01T11:33:25;12.88;;;4.28;;
37545;SDS011;23389;52.484;13.572;2023-02-01T11:35:55;12.65;;;3.13;;
37545;SDS011;23389;52.484;13.572;2023-02-01T11:38:26;9.25;;;2.00;;
37545;SDS011;23389;52.484;13.572;2023-02-01T11:40:53;14.13;;;2.78;;
37545;SDS011;23389;52.484;13.572;2023-02-01T11:43:23;15.82;;;3.40;;
37545;SDS011;23389;52.484;13.572;2023-02-01T11:45:54;16.92;;;4.13;;
37545;SDS011;23389;52.484;13.572;2023-02-01T11:48:30;11.25;;;2.97;;
37545;SDS011;23389;52.484;13.572;2023-02-01T11:51:02;12.93;;;3.65;;
37545;SDS011;23389;52.484;13.572;2023-02-01T11:53:38;8.75;;;2.75;;
37545;SDS011;23389;52.484;13.572;2023-02-01T11:56:32;12.75;;;4.22;;
37545;SDS011;23389;52.484;13.572;2023-02-01T11:59:14;15.27;;;3.78;;
37545;SDS011;23389;52.484;13.572;2023-02-01T12:04:40;13.15;;;3.28;;
37545;SDS011;23389;52.484;13.572;2023-02-01T12:07:22;11.35;;;2.58;;
37545;SDS011;23389;52.484;13.572;2023-02-01T12:12:43;12.43;;;2.88;;
37545;SDS011;23389;52.484;13.572;2023-02-01T12:15:36;10.05;;;1.80;;
37545;SDS011;23389;52.484;13.572;2023-02-01T12:21:22;14.98;;;3.47;;
37545;SDS011;23389;52.484;13.572;2023-02-01T12:26:35;10.05;;;2.35;;
37545;SDS011;23389;52.484;13.572;2023-02-01T12:31:53;9.98;;;2.60;;
37545;SDS011;23389;52.484;13.572;2023-02-01T12:34:50;10.15;;;2.20;;
37545;SDS011;23389;52.484;13.572;2023-02-01T12:43:12;17.20;;;5.80;;
37545;SDS011;23389;52.484;13.572;2023-02-01T12:45:56;12.32;;;3.00;;
37545;SDS011;23389;52.484;13.572;2023-02-01T12:48:37;10.25;;;3.20;;
37545;SDS011;23389;52.484;13.572;2023-02-01T12:51:09;10.23;;;3.60;;
37545;SDS011;23389;52.484;13.572;2023-02-01T12:53:55;12.23;;;3.08;;
37545;SDS011;23389;52.484;13.572;2023-02-01T12:56:30;12.23;;;2.10;;
37545;SDS011;23389;52.484;13.572;2023-02-01T12:59:02;10.75;;;2.40;;
37545;SDS011;23389;52.484;13.572;2023-02-01T13:04:12;12.68;;;3.08;;
37545;SDS011;23389;52.484;13.572;2023-02-01T13:06:49;13.63;;;2.72;;
37545;SDS011;23389;52.484;13.572;2023-02-01T13:09:21;9.88;;;2.45;;
37545;SDS011;23389;52.484;13.572;2023-02-01T13:11:54;9.23;;;1.90;;
37545;SDS011;23389;52.484;13.572;2023-02-01T13:14:29;11.77;;;2.60;;
37545;SDS011;23389;52.484;13.572;2023-02-01T13:17:00;14.27;;;2.92;;
37545;SDS011;23389;52.484;13.572;2023-02-01T13:19:41;12.77;;;2.45;;
37545;SDS011;23389;52.484;13.572;2023-02-01T13:22:12;9.73;;;2.40;;
37545;SDS011;23389;52.484;13.572;2023-02-01T13:24:48;8.02;;;2.03;;
37545;SDS011;23389;52.484;13.572;2023-02-01T13:27:17;15.10;;;2.20;;
37545;SDS011;23389;52.484;13.572;2023-02-01T13:29:55;9.20;;;2.03;;
37545;SDS011;23389;52.484;13.572;2023-02-01T13:37:56;7.70;;;1.90;;
37545;SDS011;23389;52.484;13.572;2023-02-01T13:40:40;9.32;;;2.22;;
37545;SDS011;23389;52.484;13.572;2023-02-01T13:43:24;10.75;;;2.40;;
37545;SDS011;23389;52.484;13.572;2023-02-01T13:45:56;11.30;;;1.90;;
37545;SDS011;23389;52.484;13.572;2023-02-01T13:48:51;8.57;;;2.10;;
37545;SDS011;23389;52.484;13.572;2023-02-01T13:51:18;9.40;;;1.90;;
37545;SDS011;23389;52.484;13.572;2023-02-01T13:53:58;13.43;;;2.25;;
37545;SDS011;23389;52.484;13.572;2023-02-01T13:56:23;14.23;;;3.00;;
37545;SDS011;23389;52.484;13.572;2023-02-01T13:58:50;8.10;;;2.30;;
37545;SDS011;23389;52.484;13.572;2023-02-01T14:11:36;10.52;;;1.63;;
37545;SDS011;23389;52.484;13.572;2023-02-01T14:16:38;12.10;;;2.50;;
37545;SDS011;23389;52.484;13.572;2023-02-01T14:19:06;12.40;;;2.33;;
37545;SDS011;23389;52.484;13.572;2023-02-01T14:21:34;9.55;;;2.08;;
37545;SDS011;23389;52.484;13.572;2023-02-01T14:24:16;10.75;;;2.55;;
37545;SDS011;23389;52.484;13.572;2023-02-01T14:26:51;11.75;;;2.50;;
37545;SDS011;23389;52.484;13.572;2023-02-01T14:29:24;13.40;;;3.42;;
37545;SDS011;23389;52.484;13.572;2023-02-01T14:31:59;12.27;;;2.85;;
37545;SDS011;23389;52.484;13.572;2023-02-01T14:34:30;12.50;;;2.60;;
37545;SDS011;23389;52.484;13.572;2023-02-01T14:47:53;14.55;;;3.97;;
37545;SDS011;23389;52.484;13.572;2023-02-01T14:55:38;15.65;;;3.45;;
37545;SDS011;23389;52.484;13.572;2023-02-01T14:58:09;12.23;;;2.70;;
37545;SDS011;23389;52.484;13.572;2023-02-01T15:00:51;14.18;;;3.03;;
37545;SDS011;23389;52.484;13.572;2023-02-01T15:03:24;11.93;;;3.05;;
37545;SDS011;23389;52.484;13.572;2023-02-01T15:06:03;14.68;;;4.55;;
37545;SDS011;23389;52.484;13.572;2023-02-01T15:08:32;14.18;;;3.63;;
37545;SDS011;23389;52.484;13.572;2023-02-01T15:13:27;22.75;;;10.25;;
37545;SDS011;23389;52.484;13.572;2023-02-01T15:16:15;10.65;;;2.67;;
37545;SDS011;23389;52.484;13.572;2023-02-01T15:18:40;15.07;;;4.88;;
37545;SDS011;23389;52.484;13.572;2023-02-01T15:21:06;8.98;;;2.78;;
37545;SDS011;23389;52.484;13.572;2023-02-01T15:23:48;6.10;;;1.42;;
37545;SDS011;23389;52.484;13.572;2023-02-01T15:26:26;5.80;;;1.27;;
37545;SDS011;23389;52.484;13.572;2023-02-01T15:28:57;5.28;;;1.55;;
37545;SDS011;23389;52.484;13.572;2023-02-01T15:31:31;5.97;;;1.48;;
37545;SDS011;23389;52.484;13.572;2023-02-01T15:34:07;11.48;;;2.05;;
37545;SDS011;23389;52.484;13.572;2023-02-01T15:36:33;7.22;;;1.67;;
37545;SDS011;23389;52.484;13.572;2023-02-01T15:41:56;5.65;;;1.42;;
37545;SDS011;23389;52.484;13.572;2023-02-01T15:47:15;8.80;;;1.92;;
37545;SDS011;23389;52.484;13.572;2023-02-01T15:49:43;5.95;;;1.60;;
37545;SDS011;23389;52.484;13.572;2023-02-01T15:52:18;5.07;;;1.85;;
37545;SDS011;23389;52.484;13.572;2023-02-01T15:54:48;6.22;;;1.80;;
37545;SDS011;23389;52.484;13.572;2023-02-01T15:59:54;5.82;;;1.75;;
37545;SDS011;23389;52.484;13.572;2023-02-01T16:02:29;4.07;;;1.27;;
37545;SDS011;23389;52.484;13.572;2023-02-01T16:04:59;5.43;;;1.70;;
37545;SDS011;23389;52.484;13.572;2023-02-01T16:07:27;3.88;;;1.20;;
37545;SDS011;23389;52.484;13.572;2023-02-01T16:09:55;3.75;;;1.20;;
37545;SDS011;23389;52.484;13.572;2023-02-01T16:12:44;3.17;;;1.20;;
37545;SDS011;23389;52.484;13.572;2023-02-01T16:15:11;2.90;;;0.98;;
37545;SDS011;23389;52.484;13.572;2023-02-01T16:17:37;2.55;;;1.27;;
37545;SDS011;23389;52.484;13.572;2023-02-01T16:20:02;4.38;;;1.58;;
37545;SDS011;23389;52.484;13.572;2023-02-01T16:22:28;4.13;;;1.70;;